sensor_id;sensor_type;location;lat;lon;timestamp;temperature;humidity
42097;DHT22;27754;45.414;11.084;2023-12-20T00:02:17;2.70;92.70
42097;DHT22;27754;45.414;11.084;2023-12-20T00:04:44;2.70;92.70
42097;DHT22;27754;45.414;11.084;2023-12-20T00:07:11;2.70;92.70
42097;DHT22;27754;45.414;11.084;2023-12-20T00:09:38;2.70;92.80
42097;DHT22;27754;45.414;11.084;2023-12-20T00:12:05;2.70;92.70
42097;DHT22;27754;45.414;11.084;2023-12-20T00:14:32;2.60;92.60
42097;DHT22;27754;45.414;11.084;2023-12-20T00:16:59;2.50;92.50
42097;DHT22;27754;45.414;11.084;2023-12-20T00:19:26;2.40;92.30
42097;DHT22;27754;45.414;11.084;2023-12-20T00:21:53;2.40;92.50
42097;DHT22;27754;45.414;11.084;2023-12-20T00:24:20;2.30;92.20
42097;DHT22;27754;45.414;11.084;2023-12-20T00:26:47;2.20;92.40
42097;DHT22;27754;45.414;11.084;2023-12-20T00:29:14;2.20;92.50
42097;DHT22;27754;45.414;11.084;2023-12-20T00:31:41;2.20;92.50
42097;DHT22;27754;45.414;11.084;2023-12-20T00:34:08;2.10;92.20
42097;DHT22;27754;45.414;11.084;2023-12-20T00:36:36;1.90;91.70
42097;DHT22;27754;45.414;11.084;2023-12-20T00:39:03;1.80;91.50
42097;DHT22;27754;45.414;11.084;2023-12-20T00:41:31;1.70;91.80
42097;DHT22;27754;45.414;11.084;2023-12-20T00:43:58;1.80;92.10
42097;DHT22;27754;45.414;11.084;2023-12-20T00:46:25;1.80;92.40
42097;DHT22;27754;45.414;11.084;2023-12-20T00:48:52;1.80;92.40
42097;DHT22;27754;45.414;11.084;2023-12-20T00:51:19;1.90;92.80
42097;DHT22;27754;45.414;11.084;2023-12-20T00:53:46;1.90;93.00
42097;DHT22;27754;45.414;11.084;2023-12-20T00:56:16;2.00;93.10
42097;DHT22;27754;45.414;11.084;2023-12-20T00:58:44;2.00;93.20
42097;DHT22;27754;45.414;11.084;2023-12-20T01:01:11;2.10;93.20
42097;DHT22;27754;45.414;11.084;2023-12-20T01:03:39;2.20;93.40
42097;DHT22;27754;45.414;11.084;2023-12-20T01:06:06;2.20;93.50
42097;DHT22;27754;45.414;11.084;2023-12-20T01:08:34;2.30;93.50
42097;DHT22;27754;45.414;11.084;2023-12-20T01:11:04;2.40;93.50
42097;DHT22;27754;45.414;11.084;2023-12-20T01:13:32;2.40;93.50
42097;DHT22;27754;45.414;11.084;2023-12-20T01:15:59;2.50;93.50
42097;DHT22;27754;45.414;11.084;2023-12-20T01:18:26;2.50;93.40
42097;DHT22;27754;45.414;11.084;2023-12-20T01:20:53;2.60;93.40
42097;DHT22;27754;45.414;11.084;2023-12-20T01:23:20;2.60;93.30
42097;DHT22;27754;45.414;11.084;2023-12-20T01:25:48;2.70;93.40
42097;DHT22;27754;45.414;11.084;2023-12-20T01:28:15;2.70;93.10
42097;DHT22;27754;45.414;11.084;2023-12-20T01:30:42;2.70;93.10
42097;DHT22;27754;45.414;11.084;2023-12-20T01:33:09;2.80;93.00
42097;DHT22;27754;45.414;11.084;2023-12-20T01:35:36;2.80;92.90
42097;DHT22;27754;45.414;11.084;2023-12-20T01:38:04;2.80;92.80
42097;DHT22;27754;45.414;11.084;2023-12-20T01:40:31;2.70;92.50
42097;DHT22;27754;45.414;11.084;2023-12-20T01:43:02;2.60;92.30
42097;DHT22;27754;45.414;11.084;2023-12-20T01:45:31;2.40;91.60
42097;DHT22;27754;45.414;11.084;2023-12-20T01:47:59;2.20;91.10
42097;DHT22;27754;45.414;11.084;2023-12-20T01:50:27;2.00;91.40
42097;DHT22;27754;45.414;11.084;2023-12-20T01:52:55;2.10;92.00
42097;DHT22;27754;45.414;11.084;2023-12-20T01:55:29;2.10;92.30
42097;DHT22;27754;45.414;11.084;2023-12-20T01:57:59;2.10;92.50
42097;DHT22;27754;45.414;11.084;2023-12-20T02:00:27;2.20;92.70
42097;DHT22;27754;45.414;11.084;2023-12-20T02:02:55;2.20;92.90
42097;DHT22;27754;45.414;11.084;2023-12-20T02:05:29;2.10;92.50
42097;DHT22;27754;45.414;11.084;2023-12-20T02:07:56;2.10;92.80
42097;DHT22;27754;45.414;11.084;2023-12-20T02:10:24;2.10;92.90
42097;DHT22;27754;45.414;11.084;2023-12-20T02:12:51;1.80;91.60
42097;DHT22;27754;45.414;11.084;2023-12-20T02:15:18;1.80;91.70
42097;DHT22;27754;45.414;11.084;2023-12-20T02:17:47;1.70;91.60
42097;DHT22;27754;45.414;11.084;2023-12-20T02:20:15;1.70;91.90
42097;DHT22;27754;45.414;11.084;2023-12-20T02:22:42;1.70;92.30
42097;DHT22;27754;45.414;11.084;2023-12-20T02:25:09;1.90;92.50
42097;DHT22;27754;45.414;11.084;2023-12-20T02:27:36;1.90;93.10
42097;DHT22;27754;45.414;11.084;2023-12-20T02:30:04;2.00;93.40
42097;DHT22;27754;45.414;11.084;2023-12-20T02:32:31;2.10;93.20
42097;DHT22;27754;45.414;11.084;2023-12-20T02:34:58;2.20;93.20
42097;DHT22;27754;45.414;11.084;2023-12-20T02:37:25;2.20;92.90
42097;DHT22;27754;45.414;11.084;2023-12-20T02:39:52;2.10;92.60
42097;DHT22;27754;45.414;11.084;2023-12-20T02:42:19;2.10;92.40
42097;DHT22;27754;45.414;11.084;2023-12-20T02:44:46;2.10;92.40
42097;DHT22;27754;45.414;11.084;2023-12-20T02:47:13;2.00;92.20
42097;DHT22;27754;45.414;11.084;2023-12-20T02:49:40;1.90;92.10
42097;DHT22;27754;45.414;11.084;2023-12-20T02:52:07;1.90;91.40
42097;DHT22;27754;45.414;11.084;2023-12-20T02:54:34;1.80;91.50
42097;DHT22;27754;45.414;11.084;2023-12-20T02:57:01;1.70;91.50
42097;DHT22;27754;45.414;11.084;2023-12-20T02:59:28;1.80;91.50
42097;DHT22;27754;45.414;11.084;2023-12-20T03:01:55;1.70;91.70
42097;DHT22;27754;45.414;11.084;2023-12-20T03:04:22;1.80;91.90
42097;DHT22;27754;45.414;11.084;2023-12-20T03:06:49;1.80;92.00
42097;DHT22;27754;45.414;11.084;2023-12-20T03:09:16;1.80;92.10
42097;DHT22;27754;45.414;11.084;2023-12-20T03:11:43;1.80;92.10
42097;DHT22;27754;45.414;11.084;2023-12-20T03:14:10;1.80;92.20
42097;DHT22;27754;45.414;11.084;2023-12-20T03:16:37;1.90;92.30
42097;DHT22;27754;45.414;11.084;2023-12-20T03:19:04;1.90;92.40
42097;DHT22;27754;45.414;11.084;2023-12-20T03:21:31;2.00;92.40
42097;DHT22;27754;45.414;11.084;2023-12-20T03:23:58;2.00;92.30
42097;DHT22;27754;45.414;11.084;2023-12-20T03:26:25;2.00;92.20
42097;DHT22;27754;45.414;11.084;2023-12-20T03:28:52;2.00;92.10
42097;DHT22;27754;45.414;11.084;2023-12-20T03:31:19;2.00;92.30
42097;DHT22;27754;45.414;11.084;2023-12-20T03:33:47;2.10;92.50
42097;DHT22;27754;45.414;11.084;2023-12-20T03:36:15;2.10;92.40
42097;DHT22;27754;45.414;11.084;2023-12-20T03:38:42;2.10;92.30
42097;DHT22;27754;45.414;11.084;2023-12-20T03:41:09;2.20;92.50
42097;DHT22;27754;45.414;11.084;2023-12-20T03:43:36;2.20;92.60
42097;DHT22;27754;45.414;11.084;2023-12-20T03:46:03;2.30;92.70
42097;DHT22;27754;45.414;11.084;2023-12-20T03:48:31;2.40;92.60
42097;DHT22;27754;45.414;11.084;2023-12-20T03:50:58;2.40;92.60
42097;DHT22;27754;45.414;11.084;2023-12-20T03:53:25;2.40;92.60
42097;DHT22;27754;45.414;11.084;2023-12-20T03:55:52;2.40;92.30
42097;DHT22;27754;45.414;11.084;2023-12-20T03:58:19;2.40;92.30
42097;DHT22;27754;45.414;11.084;2023-12-20T04:00:46;2.50;92.30
42097;DHT22;27754;45.414;11.084;2023-12-20T04:03:14;2.40;92.10
42097;DHT22;27754;45.414;11.084;2023-12-20T04:05:41;2.40;92.10
42097;DHT22;27754;45.414;11.084;2023-12-20T04:08:09;2.40;91.80
42097;DHT22;27754;45.414;11.084;2023-12-20T04:10:36;2.40;92.00
42097;DHT22;27754;45.414;11.084;2023-12-20T04:13:04;2.40;92.30
42097;DHT22;27754;45.414;11.084;2023-12-20T04:15:31;2.30;92.00
42097;DHT22;27754;45.414;11.084;2023-12-20T04:17:58;2.30;91.60
42097;DHT22;27754;45.414;11.084;2023-12-20T04:20:26;2.20;91.60
42097;DHT22;27754;45.414;11.084;2023-12-20T04:22:53;2.20;91.80
42097;DHT22;27754;45.414;11.084;2023-12-20T04:25:20;2.20;92.00
42097;DHT22;27754;45.414;11.084;2023-12-20T04:27:47;2.20;91.90
42097;DHT22;27754;45.414;11.084;2023-12-20T04:30:15;2.20;91.80
42097;DHT22;27754;45.414;11.084;2023-12-20T04:32:42;2.20;91.90
42097;DHT22;27754;45.414;11.084;2023-12-20T04:35:09;2.20;91.70
42097;DHT22;27754;45.414;11.084;2023-12-20T04:37:36;2.10;91.60
42097;DHT22;27754;45.414;11.084;2023-12-20T04:40:03;2.10;92.00
42097;DHT22;27754;45.414;11.084;2023-12-20T04:42:32;2.10;92.10
42097;DHT22;27754;45.414;11.084;2023-12-20T04:44:59;2.10;92.10
42097;DHT22;27754;45.414;11.084;2023-12-20T04:47:26;2.10;92.10
42097;DHT22;27754;45.414;11.084;2023-12-20T04:49:53;2.10;92.10
42097;DHT22;27754;45.414;11.084;2023-12-20T04:52:20;2.10;92.20
42097;DHT22;27754;45.414;11.084;2023-12-20T04:54:47;2.20;92.30
42097;DHT22;27754;45.414;11.084;2023-12-20T04:57:14;2.20;92.40
42097;DHT22;27754;45.414;11.084;2023-12-20T04:59:41;2.20;92.40
42097;DHT22;27754;45.414;11.084;2023-12-20T05:02:08;2.20;92.50
42097;DHT22;27754;45.414;11.084;2023-12-20T05:04:36;2.30;92.40
42097;DHT22;27754;45.414;11.084;2023-12-20T05:07:03;2.20;92.30
42097;DHT22;27754;45.414;11.084;2023-12-20T05:09:32;2.20;92.30
42097;DHT22;27754;45.414;11.084;2023-12-20T05:11:59;2.20;92.30
42097;DHT22;27754;45.414;11.084;2023-12-20T05:14:27;2.30;92.20
42097;DHT22;27754;45.414;11.084;2023-12-20T05:16:54;2.30;92.20
42097;DHT22;27754;45.414;11.084;2023-12-20T05:19:21;2.30;92.30
42097;DHT22;27754;45.414;11.084;2023-12-20T05:21:48;2.40;92.50
42097;DHT22;27754;45.414;11.084;2023-12-20T05:24:16;2.40;92.60
42097;DHT22;27754;45.414;11.084;2023-12-20T05:26:43;2.40;92.60
42097;DHT22;27754;45.414;11.084;2023-12-20T05:29:10;2.50;92.70
42097;DHT22;27754;45.414;11.084;2023-12-20T05:31:37;2.60;92.50
42097;DHT22;27754;45.414;11.084;2023-12-20T05:34:04;2.70;92.50
42097;DHT22;27754;45.414;11.084;2023-12-20T05:36:31;2.70;92.20
42097;DHT22;27754;45.414;11.084;2023-12-20T05:38:58;2.70;92.10
42097;DHT22;27754;45.414;11.084;2023-12-20T05:41:25;2.70;92.00
42097;DHT22;27754;45.414;11.084;2023-12-20T05:43:52;2.80;92.20
42097;DHT22;27754;45.414;11.084;2023-12-20T05:46:19;2.80;92.10
42097;DHT22;27754;45.414;11.084;2023-12-20T05:48:46;2.70;92.00
42097;DHT22;27754;45.414;11.084;2023-12-20T05:51:13;2.70;92.00
42097;DHT22;27754;45.414;11.084;2023-12-20T05:53:40;2.70;92.00
42097;DHT22;27754;45.414;11.084;2023-12-20T05:56:07;2.70;92.00
42097;DHT22;27754;45.414;11.084;2023-12-20T05:58:34;2.70;92.10
42097;DHT22;27754;45.414;11.084;2023-12-20T06:01:04;2.70;92.40
42097;DHT22;27754;45.414;11.084;2023-12-20T06:03:31;2.80;92.40
42097;DHT22;27754;45.414;11.084;2023-12-20T06:05:58;2.80;92.40
42097;DHT22;27754;45.414;11.084;2023-12-20T06:08:41;2.80;92.40
42097;DHT22;27754;45.414;11.084;2023-12-20T06:11:10;2.90;92.50
42097;DHT22;27754;45.414;11.084;2023-12-20T06:13:37;2.90;92.50
42097;DHT22;27754;45.414;11.084;2023-12-20T06:16:05;2.90;92.50
42097;DHT22;27754;45.414;11.084;2023-12-20T06:18:34;2.90;92.40
42097;DHT22;27754;45.414;11.084;2023-12-20T06:21:01;2.90;92.30
42097;DHT22;27754;45.414;11.084;2023-12-20T06:23:29;2.90;92.40
42097;DHT22;27754;45.414;11.084;2023-12-20T06:25:56;2.90;92.60
42097;DHT22;27754;45.414;11.084;2023-12-20T06:28:23;2.90;92.60
42097;DHT22;27754;45.414;11.084;2023-12-20T06:30:50;2.90;92.50
42097;DHT22;27754;45.414;11.084;2023-12-20T06:33:19;3.00;92.40
42097;DHT22;27754;45.414;11.084;2023-12-20T06:35:48;2.90;92.30
42097;DHT22;27754;45.414;11.084;2023-12-20T06:38:18;2.90;92.40
42097;DHT22;27754;45.414;11.084;2023-12-20T06:40:45;3.00;92.40
42097;DHT22;27754;45.414;11.084;2023-12-20T06:43:13;3.00;92.30
42097;DHT22;27754;45.414;11.084;2023-12-20T06:46:00;3.00;92.30
42097;DHT22;27754;45.414;11.084;2023-12-20T06:48:27;3.00;92.20
42097;DHT22;27754;45.414;11.084;2023-12-20T06:50:54;2.90;91.90
42097;DHT22;27754;45.414;11.084;2023-12-20T06:53:21;2.90;92.00
42097;DHT22;27754;45.414;11.084;2023-12-20T06:55:48;2.90;92.00
42097;DHT22;27754;45.414;11.084;2023-12-20T06:58:15;2.90;92.00
42097;DHT22;27754;45.414;11.084;2023-12-20T07:00:42;2.90;92.00
42097;DHT22;27754;45.414;11.084;2023-12-20T07:03:09;2.90;92.20
42097;DHT22;27754;45.414;11.084;2023-12-20T07:05:37;2.90;92.40
42097;DHT22;27754;45.414;11.084;2023-12-20T07:08:05;3.00;92.40
42097;DHT22;27754;45.414;11.084;2023-12-20T07:10:32;3.00;92.30
42097;DHT22;27754;45.414;11.084;2023-12-20T07:12:59;3.00;92.30
42097;DHT22;27754;45.414;11.084;2023-12-20T07:15:26;3.10;92.40
42097;DHT22;27754;45.414;11.084;2023-12-20T07:17:53;3.20;92.50
42097;DHT22;27754;45.414;11.084;2023-12-20T07:20:21;3.30;92.40
42097;DHT22;27754;45.414;11.084;2023-12-20T07:22:48;3.40;92.40
42097;DHT22;27754;45.414;11.084;2023-12-20T07:25:15;3.30;92.20
42097;DHT22;27754;45.414;11.084;2023-12-20T07:27:42;3.40;92.10
42097;DHT22;27754;45.414;11.084;2023-12-20T07:30:11;3.40;92.10
42097;DHT22;27754;45.414;11.084;2023-12-20T07:32:39;3.40;92.10
42097;DHT22;27754;45.414;11.084;2023-12-20T07:35:06;3.50;92.00
42097;DHT22;27754;45.414;11.084;2023-12-20T07:37:33;3.50;92.00
42097;DHT22;27754;45.414;11.084;2023-12-20T07:40:01;3.50;92.00
42097;DHT22;27754;45.414;11.084;2023-12-20T07:42:30;3.60;91.90
42097;DHT22;27754;45.414;11.084;2023-12-20T07:44:57;3.60;91.70
42097;DHT22;27754;45.414;11.084;2023-12-20T07:47:24;3.70;91.40
42097;DHT22;27754;45.414;11.084;2023-12-20T07:49:52;3.70;91.50
42097;DHT22;27754;45.414;11.084;2023-12-20T07:52:20;3.70;91.60
42097;DHT22;27754;45.414;11.084;2023-12-20T07:54:48;3.80;91.70
42097;DHT22;27754;45.414;11.084;2023-12-20T07:57:15;3.80;91.90
42097;DHT22;27754;45.414;11.084;2023-12-20T07:59:42;3.90;91.40
42097;DHT22;27754;45.414;11.084;2023-12-20T08:02:11;3.90;91.00
42097;DHT22;27754;45.414;11.084;2023-12-20T08:04:38;4.00;90.70
42097;DHT22;27754;45.414;11.084;2023-12-20T08:07:22;4.00;90.40
42097;DHT22;27754;45.414;11.084;2023-12-20T08:09:49;4.00;89.80
42097;DHT22;27754;45.414;11.084;2023-12-20T08:12:16;4.10;89.90
42097;DHT22;27754;45.414;11.084;2023-12-20T08:14:43;4.10;89.50
42097;DHT22;27754;45.414;11.084;2023-12-20T08:17:10;4.30;89.40
42097;DHT22;27754;45.414;11.084;2023-12-20T08:19:37;4.40;89.40
42097;DHT22;27754;45.414;11.084;2023-12-20T08:22:04;4.40;89.00
42097;DHT22;27754;45.414;11.084;2023-12-20T08:24:31;4.50;89.10
42097;DHT22;27754;45.414;11.084;2023-12-20T08:26:58;4.50;88.70
42097;DHT22;27754;45.414;11.084;2023-12-20T08:29:25;4.60;88.90
42097;DHT22;27754;45.414;11.084;2023-12-20T08:31:53;4.60;88.80
42097;DHT22;27754;45.414;11.084;2023-12-20T08:34:21;4.70;88.90
42097;DHT22;27754;45.414;11.084;2023-12-20T08:36:48;4.70;88.80
42097;DHT22;27754;45.414;11.084;2023-12-20T08:39:15;4.80;88.70
42097;DHT22;27754;45.414;11.084;2023-12-20T08:41:42;4.80;88.40
42097;DHT22;27754;45.414;11.084;2023-12-20T08:44:09;4.90;87.80
42097;DHT22;27754;45.414;11.084;2023-12-20T08:46:36;4.80;87.60
42097;DHT22;27754;45.414;11.084;2023-12-20T08:49:03;4.90;87.70
42097;DHT22;27754;45.414;11.084;2023-12-20T08:51:31;4.90;87.30
42097;DHT22;27754;45.414;11.084;2023-12-20T08:53:57;4.90;87.00
42097;DHT22;27754;45.414;11.084;2023-12-20T08:56:24;4.80;86.30
42097;DHT22;27754;45.414;11.084;2023-12-20T08:58:51;4.90;86.30
42097;DHT22;27754;45.414;11.084;2023-12-20T09:01:18;4.90;86.40
42097;DHT22;27754;45.414;11.084;2023-12-20T09:03:45;5.00;86.20
42097;DHT22;27754;45.414;11.084;2023-12-20T09:06:13;5.10;85.70
42097;DHT22;27754;45.414;11.084;2023-12-20T09:08:40;5.10;85.40
42097;DHT22;27754;45.414;11.084;2023-12-20T09:11:07;5.10;85.50
42097;DHT22;27754;45.414;11.084;2023-12-20T09:13:34;5.20;85.30
42097;DHT22;27754;45.414;11.084;2023-12-20T09:16:02;5.30;85.20
42097;DHT22;27754;45.414;11.084;2023-12-20T09:18:29;5.20;85.00
42097;DHT22;27754;45.414;11.084;2023-12-20T09:20:57;5.30;85.20
42097;DHT22;27754;45.414;11.084;2023-12-20T09:23:24;5.30;84.80
42097;DHT22;27754;45.414;11.084;2023-12-20T09:25:50;5.30;85.20
42097;DHT22;27754;45.414;11.084;2023-12-20T09:28:21;5.40;85.20
42097;DHT22;27754;45.414;11.084;2023-12-20T09:30:48;5.40;85.40
42097;DHT22;27754;45.414;11.084;2023-12-20T09:33:15;5.50;85.40
42097;DHT22;27754;45.414;11.084;2023-12-20T09:35:43;5.40;85.30
42097;DHT22;27754;45.414;11.084;2023-12-20T09:38:11;5.40;85.40
42097;DHT22;27754;45.414;11.084;2023-12-20T09:40:41;5.40;85.10
42097;DHT22;27754;45.414;11.084;2023-12-20T09:43:14;5.30;84.50
42097;DHT22;27754;45.414;11.084;2023-12-20T09:45:46;5.40;84.40
42097;DHT22;27754;45.414;11.084;2023-12-20T09:48:13;5.40;85.00
42097;DHT22;27754;45.414;11.084;2023-12-20T09:50:43;5.50;85.00
42097;DHT22;27754;45.414;11.084;2023-12-20T09:53:19;5.50;85.00
42097;DHT22;27754;45.414;11.084;2023-12-20T09:55:48;5.40;84.50
42097;DHT22;27754;45.414;11.084;2023-12-20T09:58:16;5.50;84.80
42097;DHT22;27754;45.414;11.084;2023-12-20T10:00:43;5.50;85.10
42097;DHT22;27754;45.414;11.084;2023-12-20T10:03:10;5.50;84.80
42097;DHT22;27754;45.414;11.084;2023-12-20T10:05:39;5.50;85.00
42097;DHT22;27754;45.414;11.084;2023-12-20T10:08:10;5.60;85.20
42097;DHT22;27754;45.414;11.084;2023-12-20T10:10:37;5.60;84.70
42097;DHT22;27754;45.414;11.084;2023-12-20T10:13:15;5.70;84.60
42097;DHT22;27754;45.414;11.084;2023-12-20T10:15:42;5.70;84.00
42097;DHT22;27754;45.414;11.084;2023-12-20T10:18:12;5.80;84.20
42097;DHT22;27754;45.414;11.084;2023-12-20T10:20:40;5.80;84.10
42097;DHT22;27754;45.414;11.084;2023-12-20T10:23:10;5.80;84.60
42097;DHT22;27754;45.414;11.084;2023-12-20T10:25:37;5.80;84.70
42097;DHT22;27754;45.414;11.084;2023-12-20T10:28:15;5.90;84.80
42097;DHT22;27754;45.414;11.084;2023-12-20T10:30:47;5.90;84.70
42097;DHT22;27754;45.414;11.084;2023-12-20T10:33:26;5.90;85.30
42097;DHT22;27754;45.414;11.084;2023-12-20T10:35:55;5.90;85.40
42097;DHT22;27754;45.414;11.084;2023-12-20T10:38:22;6.00;85.60
42097;DHT22;27754;45.414;11.084;2023-12-20T10:40:54;5.90;85.50
42097;DHT22;27754;45.414;11.084;2023-12-20T10:43:24;6.00;85.90
42097;DHT22;27754;45.414;11.084;2023-12-20T10:45:53;6.00;85.80
42097;DHT22;27754;45.414;11.084;2023-12-20T10:48:21;6.00;85.90
42097;DHT22;27754;45.414;11.084;2023-12-20T10:50:55;6.00;86.00
42097;DHT22;27754;45.414;11.084;2023-12-20T10:53:24;6.00;85.70
42097;DHT22;27754;45.414;11.084;2023-12-20T10:55:52;5.90;85.70
42097;DHT22;27754;45.414;11.084;2023-12-20T10:58:22;5.90;86.00
42097;DHT22;27754;45.414;11.084;2023-12-20T11:00:59;5.90;86.50
42097;DHT22;27754;45.414;11.084;2023-12-20T11:03:27;5.90;86.60
42097;DHT22;27754;45.414;11.084;2023-12-20T11:06:02;5.90;86.80
42097;DHT22;27754;45.414;11.084;2023-12-20T11:12:15;5.90;86.80
42097;DHT22;27754;45.414;11.084;2023-12-20T11:14:48;5.80;86.90
42097;DHT22;27754;45.414;11.084;2023-12-20T11:17:16;5.80;87.10
42097;DHT22;27754;45.414;11.084;2023-12-20T11:22:26;6.00;87.10
42097;DHT22;27754;45.414;11.084;2023-12-20T11:24:53;6.00;87.20
42097;DHT22;27754;45.414;11.084;2023-12-20T11:27:23;5.90;87.60
42097;DHT22;27754;45.414;11.084;2023-12-20T11:29:57;5.90;87.90
42097;DHT22;27754;45.414;11.084;2023-12-20T11:32:28;6.00;88.00
42097;DHT22;27754;45.414;11.084;2023-12-20T11:35:00;6.00;87.80
42097;DHT22;27754;45.414;11.084;2023-12-20T11:37:30;6.00;87.70
42097;DHT22;27754;45.414;11.084;2023-12-20T11:40:23;6.00;87.10
42097;DHT22;27754;45.414;11.084;2023-12-20T11:42:50;6.10;87.20
42097;DHT22;27754;45.414;11.084;2023-12-20T11:45:23;6.10;87.10
42097;DHT22;27754;45.414;11.084;2023-12-20T11:47:53;6.20;86.90
42097;DHT22;27754;45.414;11.084;2023-12-20T11:50:24;6.20;87.20
42097;DHT22;27754;45.414;11.084;2023-12-20T11:52:52;6.20;87.50
42097;DHT22;27754;45.414;11.084;2023-12-20T11:55:19;6.30;87.80
42097;DHT22;27754;45.414;11.084;2023-12-20T11:57:47;6.40;87.60
42097;DHT22;27754;45.414;11.084;2023-12-20T12:00:15;6.40;87.40
42097;DHT22;27754;45.414;11.084;2023-12-20T12:02:42;6.60;87.20
42097;DHT22;27754;45.414;11.084;2023-12-20T12:05:13;6.70;87.00
42097;DHT22;27754;45.414;11.084;2023-12-20T12:07:41;6.70;86.70
42097;DHT22;27754;45.414;11.084;2023-12-20T12:10:08;6.80;86.60
42097;DHT22;27754;45.414;11.084;2023-12-20T12:12:35;6.80;86.50
42097;DHT22;27754;45.414;11.084;2023-12-20T12:15:03;6.90;86.50
42097;DHT22;27754;45.414;11.084;2023-12-20T12:17:30;6.90;86.20
42097;DHT22;27754;45.414;11.084;2023-12-20T12:20:07;7.00;86.30
42097;DHT22;27754;45.414;11.084;2023-12-20T12:22:36;7.10;86.10
42097;DHT22;27754;45.414;11.084;2023-12-20T12:25:11;7.10;85.60
42097;DHT22;27754;45.414;11.084;2023-12-20T12:27:42;7.20;85.10
42097;DHT22;27754;45.414;11.084;2023-12-20T12:30:10;7.20;84.70
42097;DHT22;27754;45.414;11.084;2023-12-20T12:32:38;7.20;84.80
42097;DHT22;27754;45.414;11.084;2023-12-20T12:35:06;7.30;84.70
42097;DHT22;27754;45.414;11.084;2023-12-20T12:37:40;7.30;84.90
42097;DHT22;27754;45.414;11.084;2023-12-20T12:40:14;7.30;84.80
42097;DHT22;27754;45.414;11.084;2023-12-20T12:42:42;7.30;84.70
42097;DHT22;27754;45.414;11.084;2023-12-20T12:45:11;7.30;84.80
42097;DHT22;27754;45.414;11.084;2023-12-20T12:47:41;7.40;84.20
42097;DHT22;27754;45.414;11.084;2023-12-20T12:50:08;7.30;83.60
42097;DHT22;27754;45.414;11.084;2023-12-20T12:52:35;7.40;83.50
42097;DHT22;27754;45.414;11.084;2023-12-20T12:55:03;7.40;83.70
42097;DHT22;27754;45.414;11.084;2023-12-20T12:57:32;7.50;83.50
42097;DHT22;27754;45.414;11.084;2023-12-20T13:00:00;7.50;83.20
42097;DHT22;27754;45.414;11.084;2023-12-20T13:02:27;7.50;83.40
42097;DHT22;27754;45.414;11.084;2023-12-20T13:04:54;7.60;83.60
42097;DHT22;27754;45.414;11.084;2023-12-20T13:07:21;7.60;83.70
42097;DHT22;27754;45.414;11.084;2023-12-20T13:09:48;7.70;83.40
42097;DHT22;27754;45.414;11.084;2023-12-20T13:12:15;7.70;83.70
42097;DHT22;27754;45.414;11.084;2023-12-20T13:14:42;7.70;83.90
42097;DHT22;27754;45.414;11.084;2023-12-20T13:17:09;7.80;83.80
42097;DHT22;27754;45.414;11.084;2023-12-20T13:19:36;7.90;83.60
42097;DHT22;27754;45.414;11.084;2023-12-20T13:22:03;7.90;83.40
42097;DHT22;27754;45.414;11.084;2023-12-20T13:24:31;7.90;83.40
42097;DHT22;27754;45.414;11.084;2023-12-20T13:26:59;7.90;83.20
42097;DHT22;27754;45.414;11.084;2023-12-20T13:29:26;7.90;83.20
42097;DHT22;27754;45.414;11.084;2023-12-20T13:31:55;7.90;83.30
42097;DHT22;27754;45.414;11.084;2023-12-20T13:34:23;7.90;83.50
42097;DHT22;27754;45.414;11.084;2023-12-20T13:36:50;7.90;83.40
42097;DHT22;27754;45.414;11.084;2023-12-20T13:39:17;7.90;83.50
42097;DHT22;27754;45.414;11.084;2023-12-20T13:41:45;8.00;83.40
42097;DHT22;27754;45.414;11.084;2023-12-20T13:44:12;8.20;83.10
42097;DHT22;27754;45.414;11.084;2023-12-20T13:46:40;8.10;82.60
42097;DHT22;27754;45.414;11.084;2023-12-20T13:49:08;8.10;82.50
42097;DHT22;27754;45.414;11.084;2023-12-20T13:51:35;8.10;82.50
42097;DHT22;27754;45.414;11.084;2023-12-20T13:54:02;8.00;82.60
42097;DHT22;27754;45.414;11.084;2023-12-20T13:56:29;7.90;82.80
42097;DHT22;27754;45.414;11.084;2023-12-20T13:58:56;7.90;83.00
42097;DHT22;27754;45.414;11.084;2023-12-20T14:01:23;7.90;83.30
42097;DHT22;27754;45.414;11.084;2023-12-20T14:03:50;7.70;83.40
42097;DHT22;27754;45.414;11.084;2023-12-20T14:06:17;7.70;83.60
42097;DHT22;27754;45.414;11.084;2023-12-20T14:08:45;7.60;83.80
42097;DHT22;27754;45.414;11.084;2023-12-20T14:11:12;7.60;83.90
42097;DHT22;27754;45.414;11.084;2023-12-20T14:13:40;7.60;84.00
42097;DHT22;27754;45.414;11.084;2023-12-20T14:16:07;7.70;84.00
42097;DHT22;27754;45.414;11.084;2023-12-20T14:18:34;7.70;84.00
42097;DHT22;27754;45.414;11.084;2023-12-20T14:21:01;7.60;83.90
42097;DHT22;27754;45.414;11.084;2023-12-20T14:23:28;7.60;83.80
42097;DHT22;27754;45.414;11.084;2023-12-20T14:25:55;7.60;83.70
42097;DHT22;27754;45.414;11.084;2023-12-20T14:28:23;7.50;83.70
42097;DHT22;27754;45.414;11.084;2023-12-20T14:30:50;7.50;83.80
42097;DHT22;27754;45.414;11.084;2023-12-20T14:33:17;7.50;83.80
42097;DHT22;27754;45.414;11.084;2023-12-20T14:35:47;7.40;83.90
42097;DHT22;27754;45.414;11.084;2023-12-20T14:38:14;7.40;84.00
42097;DHT22;27754;45.414;11.084;2023-12-20T14:40:42;7.40;84.10
42097;DHT22;27754;45.414;11.084;2023-12-20T14:43:09;7.40;84.10
42097;DHT22;27754;45.414;11.084;2023-12-20T14:45:36;7.40;84.50
42097;DHT22;27754;45.414;11.084;2023-12-20T14:48:04;7.30;84.60
42097;DHT22;27754;45.414;11.084;2023-12-20T14:50:31;7.30;84.70
42097;DHT22;27754;45.414;11.084;2023-12-20T14:52:58;7.30;84.70
42097;DHT22;27754;45.414;11.084;2023-12-20T14:55:26;7.30;84.80
42097;DHT22;27754;45.414;11.084;2023-12-20T14:57:57;7.30;84.90
42097;DHT22;27754;45.414;11.084;2023-12-20T15:00:24;7.30;84.90
42097;DHT22;27754;45.414;11.084;2023-12-20T15:02:51;7.20;85.00
42097;DHT22;27754;45.414;11.084;2023-12-20T15:05:20;7.20;85.10
42097;DHT22;27754;45.414;11.084;2023-12-20T15:07:47;7.20;85.20
42097;DHT22;27754;45.414;11.084;2023-12-20T15:10:15;7.10;85.20
42097;DHT22;27754;45.414;11.084;2023-12-20T15:12:46;7.10;85.20
42097;DHT22;27754;45.414;11.084;2023-12-20T15:15:13;7.00;85.40
42097;DHT22;27754;45.414;11.084;2023-12-20T15:17:40;7.00;85.50
42097;DHT22;27754;45.414;11.084;2023-12-20T15:20:08;6.90;85.60
42097;DHT22;27754;45.414;11.084;2023-12-20T15:22:38;6.90;86.00
42097;DHT22;27754;45.414;11.084;2023-12-20T15:25:06;6.90;85.90
42097;DHT22;27754;45.414;11.084;2023-12-20T15:27:35;6.90;85.90
42097;DHT22;27754;45.414;11.084;2023-12-20T15:30:06;6.90;86.10
42097;DHT22;27754;45.414;11.084;2023-12-20T15:32:35;6.70;86.20
42097;DHT22;27754;45.414;11.084;2023-12-20T15:35:04;6.60;86.40
42097;DHT22;27754;45.414;11.084;2023-12-20T15:37:31;6.50;86.70
42097;DHT22;27754;45.414;11.084;2023-12-20T15:39:58;6.40;87.00
42097;DHT22;27754;45.414;11.084;2023-12-20T15:42:30;6.30;87.40